Latest Weather Observations for Ouse

IDT60801

Issued at 4:01 am EST Wednesday 5 August 2015 (issued every 30 minutes, with the page automatically refreshed every 10 minutes)

About weather observations | Map of weather stations | Latest weather observations for TAS | Other Formats
Station Details ID: 095048 Name: OUSE FIRE STATION Lat: -42.48 Lon: 146.71 Height: 90.0 m
Data from the previous 72 hours. | See also: Recent months at Ouse
Date/Time
EST
Temp
°C
App
Temp
°C
Dew
Point
Rel
Hum
%
Delta-T
°C
Wind Press
QNH
hPa
Press
MSL
hPa
Rain
since 9 am
mm
Dir
 
Spd
km/h
Gust
km/h
Spd
kts
Gust
kts
05/04:00am 2.4 -2.9 -0.7 80 1.1 NNW 17 28 9 15 1000.8 1001.0 17.2
05/03:30am 1.6 -2.5 0.1 90 0.6 ENE 11 20 6 11 1000.5 1000.7 17.0
05/03:00am 3.7 -2.1 -1.3 70 1.8 WSW 19 32 10 17 1000.6 1000.8 16.4
05/02:30am 3.8 -3.7 -1.4 69 1.9 WSW 28 57 15 31 999.1 999.3 16.4
05/02:15am 4.1 -1.7 -1.3 68 2.0 W 19 50 10 27 998.8 999.0 16.4
05/02:00am 3.9 -2.7 -0.1 75 1.5 WSW 24 43 13 23 998.9 999.1 16.4
05/01:46am 4.0 -3.6 0.3 77 1.4 W 30 48 16 26 999.2 999.4 16.4
05/01:30am 3.9 -1.1 1.1 82 1.1 WNW 17 33 9 18 998.8 999.0 16.4
05/01:00am 4.4 -1.1 1.9 84 1.0 W 20 39 11 21 998.7 998.9 16.2
05/12:30am 4.3 -1.9 2.3 87 0.8 WNW 24 41 13 22 998.5 998.7 15.8
05/12:00am 4.5 -0.3 2.4 86 0.9 NW 17 30 9 16 997.6 997.8 14.4
 
Date/Time
EST
Temp
°C
App
Temp
°C
Dew
Point
Rel
Hum
%
Delta-T
°C
Wind Press
QNH
hPa
Press
MSL
hPa
Rain
since 9 am
mm
Dir
 
Spd
km/h
Gust
km/h
Spd
kts
Gust
kts
04/11:32pm 5.1 -1.8 2.3 82 1.1 W 28 46 15 25 998.3 998.5 14.4
04/11:30pm 5.2 -1.0 2.4 82 1.1 W 24 43 13 23 998.5 998.7 14.2
04/11:00pm 5.7 1.3 2.7 81 1.2 NW 15 26 8 14 997.5 997.7 13.2
04/10:30pm 4.4 0.8 2.9 90 0.6 N 11 19 6 10 997.7 997.9 13.2
04/10:00pm 4.4 -0.4 2.6 88 0.7 N 17 26 9 14 998.3 998.5 13.2
04/09:30pm 5.1 1.2 3.4 89 0.7 NNW 13 22 7 12 999.2 999.4 12.8
04/09:00pm 5.4 0.7 3.3 86 0.9 NW 17 26 9 14 999.6 999.8 11.8
04/08:30pm 5.6 1.3 3.3 85 1.0 N 15 24 8 13 999.3 999.5 10.8
04/08:24pm 5.6 0.9 3.3 85 1.0 NNW 17 28 9 15 999.1 999.3 10.8
04/08:00pm 5.9 1.0 3.9 87 0.9 WNW 19 39 10 21 1001.1 1001.3 10.8
04/07:30pm 5.9 1.4 4.4 90 0.6 NNW 17 26 9 14 1000.0 1000.2 9.2
04/07:00pm 6.0 2.3 4.6 91 0.6 NNW 13 20 7 11 999.7 999.9 7.2
04/06:30pm 6.4 1.6 4.7 89 0.7 NW 19 32 10 17 1000.4 1000.6 4.8
04/06:00pm 7.1 2.1 4.4 83 1.2 NW 20 33 11 18 1000.5 1000.7 1.2
04/05:30pm 7.3 1.7 3.5 77 1.6 NW 22 35 12 19 1000.1 1000.3 0.2
04/05:00pm 7.6 1.6 3.5 75 1.8 NNW 24 35 13 19 1001.0 1001.2 0.2
04/04:30pm 8.0 2.5 4.0 76 1.7 NW 22 41 12 22 1001.7 1001.9 0.2
04/04:00pm 8.5 3.3 3.8 72 2.1 NW 20 33 11 18 1002.3 1002.5 0.0
04/03:30pm 8.6 3.5 4.0 73 2.0 NW 20 33 11 18 1003.2 1003.4 0.0
04/03:00pm 8.9 2.6 3.7 70 2.3 NW 26 39 14 21 1003.7 1003.9 0.0
04/02:30pm 8.9 3.8 4.1 72 2.1 NNW 20 33 11 18 1004.3 1004.5 0.0
04/02:00pm 10.4 5.3 4.3 66 2.7 NW 20 33 11 18 1004.9 1005.0 0.0
04/01:30pm 9.9 4.8 4.1 67 2.6 NW 20 32 11 17 1006.1 1006.2 0.0
04/01:00pm 10.2 5.2 4.4 67 2.6 NW 20 33 11 18 1006.7 1006.9 0.0
04/12:30pm 9.8 3.9 3.8 66 2.6 NW 24 35 13 19 1007.6 1007.8 0.0
04/12:00pm 9.9 3.9 3.6 65 2.8 NW 24 43 13 23 1008.4 1008.6 0.0
04/11:30am 9.4 3.7 2.9 64 2.8 NNW 22 35 12 19 1009.1 1009.3 0.0
04/11:00am 8.2 3.4 2.7 68 2.3 N 17 24 9 13 1009.7 1009.9 0.0
04/10:30am 8.7 3.9 2.7 66 2.5 NNW 17 26 9 14 1010.4 1010.6 0.0
04/10:00am 7.6 2.7 2.3 69 2.2 NNE 17 28 9 15 1011.0 1011.2 0.0
04/09:30am 7.2 2.7 1.9 69 2.2 N 15 20 8 11 1011.4 1011.6 0.0
04/09:00am 6.2 2.0 1.5 72 1.9 N 13 20 7 11 1012.2 1012.4 5.2
04/08:30am 6.0 1.7 1.0 70 2.0 NNW 13 19 7 10 1012.7 1012.9 5.2
04/08:00am 5.7 1.0 0.9 71 1.9 N 15 26 8 14 1012.7 1012.9 5.2
04/07:30am 5.0 0.3 0.6 73 1.7 N 15 22 8 12 1012.8 1013.0 5.2
04/07:00am 3.7 -1.2 -0.3 75 1.5 N 15 20 8 11 1013.2 1013.4 5.2
04/06:30am 4.7 0.7 0.3 73 1.7 N 11 19 6 10 1013.5 1013.7 5.2
04/06:00am 4.5 -0.7 0.1 73 1.7 NNW 17 24 9 13 1013.7 1013.9 5.2
04/05:30am 4.4 0.0 0.2 74 1.6 N 13 19 7 10 1013.8 1014.0 5.2
04/05:00am 4.0 -0.5 0.0 75 1.5 N 13 20 7 11 1014.0 1014.2 5.2
04/04:30am 3.8 -0.3 0.0 76 1.4 N 11 15 6 8 1014.2 1014.4 5.2
04/04:00am 3.8 -0.7 0.0 76 1.4 NNW 13 19 7 10 1014.4 1014.6 5.2
04/03:30am 4.1 -1.1 0.1 75 1.5 NW 17 24 9 13 1014.7 1014.9 5.2
04/03:00am 2.4 -1.4 -0.4 82 1.0 N 9 13 5 7 1015.1 1015.3 5.2
04/02:30am 2.7 -1.8 -0.4 80 1.1 N 13 17 7 9 1015.5 1015.8 5.2
04/02:00am 2.8 -1.3 -0.3 80 1.1 N 11 15 6 8 1016.0 1016.3 5.2
04/01:30am 2.4 -2.2 -0.7 80 1.1 N 13 17 7 9 1016.2 1016.4 5.2
04/01:00am 2.3 -2.7 -1.0 79 1.2 NNW 15 19 8 10 1016.5 1016.7 5.2
04/12:30am 2.0 -2.2 -0.6 83 0.9 NNW 11 17 6 9 1016.7 1016.9 5.2
04/12:00am 1.4 -2.8 -0.7 86 0.8 N 11 13 6 7 1017.0 1017.2 5.2
 
Date/Time
EST
Temp
°C
App
Temp
°C
Dew
Point
Rel
Hum
%
Delta-T
°C
Wind Press
QNH
hPa
Press
MSL
hPa
Rain
since 9 am
mm
Dir
 
Spd
km/h
Gust
km/h
Spd
kts
Gust
kts
03/11:30pm 2.1 -1.3 -0.6 82 1.0 NNW 7 11 4 6 1017.1 1017.3 5.2
03/11:00pm 3.4 -1.1 -0.2 77 1.3 NNW 13 20 7 11 1017.4 1017.6 5.2
03/10:30pm 3.6 -0.5 -0.2 76 1.4 N 11 17 6 9 1017.4 1017.6 5.2
03/10:00pm 3.2 -1.7 -0.3 78 1.3 N 15 20 8 11 1017.4 1017.6 5.2
03/09:30pm 2.1 -1.6 0.2 87 0.7 N 9 11 5 6 1017.3 1017.5 5.2
03/09:00pm 2.0 -0.7 0.1 87 0.7 NNW 4 9 2 5 1017.1 1017.3 5.2
03/08:30pm 2.2 -1.5 -0.1 85 0.8 NNW 9 15 5 8 1016.8 1017.0 5.2
03/08:00pm 2.1 -2.4 0.0 86 0.8 N 13 17 7 9 1016.4 1016.6 5.2
03/07:30pm 0.8 -3.4 -0.6 90 0.5 N 11 15 6 8 1015.5 1015.8 5.2
03/07:00pm 1.5 -1.0 -0.7 85 0.8 WSW 2 7 1 4 1014.9 1015.1 5.2
03/06:30pm 2.8 -0.9 -0.3 80 1.1 SW 9 15 5 8 1014.5 1014.7 5.2
03/06:00pm 4.1 0.3 -0.5 72 1.7 SW 9 17 5 9 1014.5 1014.7 5.2
03/05:30pm 4.4 -0.5 -0.6 70 1.9 WSW 15 24 8 13 1013.8 1014.0 5.2
03/05:00pm 5.1 0.6 -0.1 69 2.0 W 13 26 7 14 1013.3 1013.5 5.2
03/04:30pm 5.1 0.0 0.7 73 1.7 W 17 33 9 18 1012.6 1012.8 5.2
03/04:00pm 6.5 1.3 0.4 65 2.4 SW 17 26 9 14 1011.5 1011.7 5.2
03/03:30pm 5.3 0.7 1.8 78 1.4 S 15 26 8 14 1010.2 1010.4 5.2
03/03:00pm 6.3 -0.1 1.0 69 2.1 SW 24 41 13 22 1009.9 1010.1 4.8
03/02:32pm 6.5 -0.6 1.4 70 2.1 WSW 28 48 15 26 1008.3 1008.5 4.8
03/02:30pm 6.4 0.1 1.3 70 2.0 WSW 24 48 13 26 1008.1 1008.3 4.8
03/02:14pm 5.3 -1.8 1.6 77 1.5 WSW 28 48 15 26 1007.7 1007.9 4.8
03/02:00pm 4.0 -1.3 1.7 85 0.9 WNW 19 44 10 24 1007.3 1007.5 4.8
03/01:30pm 4.2 0.0 1.7 84 1.0 SSW 13 20 7 11 1007.9 1008.1 4.4
03/01:01pm 4.6 -0.8 1.3 79 1.3 W 19 65 10 35 1007.3 1007.5 4.0
03/01:00pm 4.7 -0.2 1.9 82 1.1 W 17 57 9 31 1007.4 1007.6 4.0
03/12:41pm 5.1 -0.4 1.8 79 1.3 W 20 48 11 26 1006.3 1006.5 4.0
03/12:40pm 5.0 -0.6 1.5 78 1.4 W 20 48 11 26 1006.3 1006.5 4.0
03/12:30pm 3.8 0.4 1.7 86 0.8 W 9 19 5 10 1006.1 1006.2 4.0
03/12:00pm 2.5 -1.3 1.5 93 0.4 WNW 11 24 6 13 1005.8 1005.9 3.4
03/11:30am 1.5 -2.1 0.8 95 0.3 N 9 15 5 8 1005.2 1005.3 2.6
03/11:00am 2.3 -1.7 0.5 88 0.7 NW 11 24 6 13 1005.0 1005.1 1.4
03/10:30am 1.9 -2.4 0.7 92 0.5 WNW 13 24 7 13 1003.9 1004.1 1.0
03/10:00am 1.6 -3.6 -0.2 88 0.7 NW 17 26 9 14 1003.7 1003.9 0.4
03/09:30am 1.3 -2.4 0.1 92 0.4 NNW 9 17 5 9 1002.9 1003.1 0.2
03/09:00am 2.2 -1.9 -0.5 82 1.0 W 11 17 6 9 1003.1 1003.3 17.6
03/08:30am 1.3 -3.1 0.3 93 0.4 NNW 13 19 7 10 1002.4 1002.6 16.8
03/08:00am 1.5 -4.4 -0.6 86 0.8 NW 20 33 11 18 1002.0 1002.2 16.2
03/07:30am 1.0 -3.5 -0.3 91 0.5 NNW 13 20 7 11 1000.9 1001.1 16.0
03/07:00am 0.9 -4.4 -0.5 90 0.5 NW 17 24 9 13 1000.1 1000.3 16.0
03/06:30am 0.8 -4.5 -0.3 92 0.4 W 17 30 9 16 999.9 1000.1 16.0
03/06:00am 1.3 -4.4 -0.8 86 0.8 W 19 33 10 18 998.5 998.7 16.0
03/05:30am 1.8 -2.4 -0.9 82 1.0 NW 11 32 6 17 998.4 998.6 16.0
03/05:00am 1.5 -2.7 -0.7 85 0.8 NW 11 17 6 9 997.9 998.1 16.0
03/04:30am 1.6 -2.5 0.1 90 0.6 NW 11 20 6 11 997.5 997.7 16.0
03/04:00am 1.1 -3.7 -0.1 92 0.4 NNW 15 20 8 11 997.0 997.1 16.0
03/03:30am 1.5 -3.3 -0.1 89 0.6 NW 15 22 8 12 996.9 997.0 16.0
03/03:00am 1.1 -3.7 0.2 94 0.3 N 15 20 8 11 996.3 996.4 16.0
03/02:30am 2.5 -1.7 -0.6 80 1.1 NW 11 20 6 11 996.4 996.5 15.4
03/02:00am 2.6 -3.1 -0.8 78 1.3 NNW 19 32 10 17 995.7 995.8 15.4
03/01:38am 2.8 -2.3 0.9 87 0.7 NNW 17 50 9 27 996.3 996.4 15.4
03/01:30am 2.1 -2.2 1.2 94 0.3 N 13 19 7 10 996.0 996.1 15.4
03/01:00am 2.8 -1.0 1.6 92 0.5 N 11 19 6 10 995.6 995.7 15.2
03/12:30am 2.7 -0.8 1.4 91 0.5 N 9 13 5 7 995.3 995.4 15.0
03/12:00am 2.6 -2.0 1.6 93 0.4 N 15 26 8 14 995.3 995.4 15.0
 
Date/Time
EST
Temp
°C
App
Temp
°C
Dew
Point
Rel
Hum
%
Delta-T
°C
Wind Press
QNH
hPa
Press
MSL
hPa
Rain
since 9 am
mm
Dir
 
Spd
km/h
Gust
km/h
Spd
kts
Gust
kts
02/11:30pm 2.6 -1.7 1.3 91 0.5 NW 13 19 7 10 995.6 995.7 14.8
02/11:00pm 3.0 -0.8 1.8 92 0.5 NNW 11 15 6 8 995.3 995.4 13.6
02/10:30pm 2.6 -2.0 1.7 94 0.3 N 15 20 8 11 994.7 994.8 13.4
02/10:00pm 2.4 -1.0 1.8 96 0.2 NW 9 15 5 8 995.3 995.4 13.2
02/09:30pm 2.4 -1.8 1.4 93 0.4 N 13 24 7 13 994.9 995.0 12.6
02/09:00pm 2.2 -2.8 1.2 93 0.4 N 17 24 9 13 995.9 996.0 12.2
02/08:30pm 3.1 -1.2 1.3 88 0.7 NNW 13 28 7 15 996.3 996.4 9.4
02/08:00pm 3.1 -0.8 1.2 87 0.7 NNW 11 17 6 9 996.1 996.2 9.2
02/07:30pm 3.1 -0.8 1.2 87 0.7 NW 11 17 6 9 997.0 997.1 9.2
02/07:00pm 3.8 -1.4 0.3 78 1.3 NW 17 30 9 16 997.2 997.4 9.0
02/06:30pm 3.9 -0.5 0.1 76 1.4 NNW 13 22 7 12 996.8 996.9 8.8
02/06:00pm 3.8 -0.1 1.2 83 1.0 NNW 11 28 6 15 996.8 996.9 8.8
02/05:30pm 3.5 -0.3 1.5 87 0.8 N 11 19 6 10 996.8 996.9 8.8
02/05:00pm 3.5 -1.5 1.2 85 0.9 NW 17 28 9 15 996.8 996.9 8.8
02/04:34pm 4.4 -1.1 0.7 77 1.4 NNW 19 48 10 26 997.1 997.3 8.6
02/04:30pm 4.3 0.1 1.5 82 1.1 NNW 13 22 7 12 997.0 997.1 8.6
02/04:00pm 4.3 0.5 1.5 82 1.1 N 11 19 6 10 996.6 996.7 8.6
02/03:30pm 4.3 -0.3 1.5 82 1.1 NNW 15 26 8 14 997.0 997.1 8.6
02/03:00pm 4.1 -1.4 2.0 86 0.8 NW 20 35 11 19 996.6 996.7 8.6
02/02:30pm 4.1 -0.1 1.8 85 0.9 NW 13 20 7 11 996.8 996.9 8.2
02/02:00pm 3.7 -1.2 2.1 89 0.6 NW 17 30 9 16 997.4 997.6 7.8
02/01:30pm 4.6 0.6 2.8 88 0.7 WNW 13 19 7 10 997.3 997.5 7.2
02/01:00pm 5.2 -0.8 3.2 87 0.8 NW 24 37 13 20 996.5 996.6 6.0
02/12:30pm 5.8 -0.9 3.5 85 1.0 NW 28 43 15 23 995.9 996.0 5.0
02/12:00pm 7.3 -2.2 3.9 79 1.5 WNW 43 80 23 43 995.5 995.6 1.2
02/11:54am 8.1 -0.7 3.8 74 1.9 NW 39 80 21 43 995.6 995.7 0.6
02/11:30am 11.3 4.1 3.1 57 3.6 WNW 30 54 16 29 995.3 995.4 0.2
02/11:03am 11.4 3.8 2.7 55 3.8 NW 32 50 17 27 995.4 995.5 0.2
02/11:00am 11.5 4.3 3.0 56 3.8 NW 30 46 16 25 995.5 995.6 0.2
02/10:45am 11.4 4.2 2.9 56 3.7 NW 30 54 16 29 995.6 995.7 0.2
02/10:30am 11.3 5.3 3.3 58 3.5 NW 24 44 13 24 996.0 996.1 0.0
02/10:00am 10.7 3.8 2.5 57 3.6 NW 28 50 15 27 996.6 996.7 0.0
02/09:40am 10.4 3.5 2.5 58 3.4 NW 28 52 15 28 997.2 997.4 0.0
02/09:30am 10.2 3.7 2.8 60 3.2 NW 26 41 14 22 997.3 997.5 0.0
02/09:20am 10.0 3.1 2.4 59 3.2 NW 28 52 15 28 997.7 997.9 0.0
02/09:00am 9.4 2.8 2.3 61 3.0 NW 26 39 14 21 998.2 998.4 1.8
02/08:30am 8.7 2.9 2.1 63 2.8 NW 22 35 12 19 998.9 999.1 1.8
02/08:00am 7.8 2.9 1.9 66 2.5 NNW 17 26 9 14 999.5 999.7 1.8
02/07:30am 7.6 2.2 1.5 65 2.5 NW 19 35 10 19 999.9 1000.1 1.8
02/07:00am 7.7 1.4 1.3 64 2.6 NW 24 35 13 19 1000.2 1000.4 1.8
02/06:30am 7.7 2.1 1.5 65 2.5 NW 20 30 11 16 1000.5 1000.7 1.8
02/06:00am 7.7 1.8 1.5 65 2.6 NW 22 37 12 20 1000.7 1000.9 1.8
02/05:30am 7.3 1.4 1.4 66 2.4 NW 22 35 12 19 1001.1 1001.3 1.8
02/05:00am 7.1 1.7 1.4 67 2.3 NW 19 30 10 16 1001.5 1001.7 1.8
02/04:30am 7.3 1.0 1.8 68 2.3 NW 24 35 13 19 1001.9 1002.1 1.8

Other Formats:

Comma delimited format used in spreadsheet applications
http://www.bom.gov.au/fwo/IDT60801/IDT60801.94957.axf

JavaScript Object Notation format (JSON) in row-major order
http://www.bom.gov.au/fwo/IDT60801/IDT60801.94957.json